Time;durP1;ratioP1;P1;durP2;ratioP2;P2;SDS_P1;SDS_P2;PMS_P1;PMS_P2;Temp;Humidity;BMP_temperature;BMP_pressure;BME280_temperature;BME280_humidity;BME280_pressure;Samples;Min_cycle;Max_cycle;Signal;HPM_P1;HPM_P2
2022/11/27 00:01:24;;;;;;;36.00;21.37;;;3.70;99.90;2.80;101546;;;;567845;251;24140;-80
2022/11/27 00:03:51;;;;;;;33.80;20.83;;;3.70;99.90;2.80;101548;;;;567400;252;24121;-79
2022/11/27 00:06:16;;;;;;;35.33;21.70;;;3.70;99.90;2.90;101548;;;;567052;252;24123;-80
2022/11/27 00:08:45;;;;;;;32.90;17.55;;;3.70;99.90;2.90;101541;;;;562322;252;35433;-81
2022/11/27 00:11:13;;;;;;;26.63;13.27;;;3.70;99.90;2.90;101551;;;;567275;251;24100;-80
2022/11/27 00:13:40;;;;;;;22.60;12.40;;;3.70;99.90;2.90;101547;;;;567007;249;24153;-80
2022/11/27 00:16:12;;;;;;;29.20;12.80;;;3.80;99.90;2.90;101551;;;;567237;251;24149;-81
2022/11/27 00:18:37;;;;;;;29.70;12.23;;;3.80;99.90;2.90;101539;;;;566954;252;24098;-79
2022/11/27 00:21:08;;;;;;;25.80;13.40;;;3.70;99.90;2.90;101543;;;;567284;251;24156;-78
2022/11/27 00:23:37;;;;;;;26.77;12.00;;;3.80;99.90;2.90;101542;;;;566938;253;24105;-79
2022/11/27 00:26:04;;;;;;;30.73;12.83;;;3.80;99.90;2.90;101540;;;;566767;253;24149;-79
2022/11/27 00:28:32;;;;;;;23.10;11.83;;;3.80;99.90;2.90;101537;;;;567395;251;24190;-79
2022/11/27 00:31:05;;;;;;;20.20;12.53;;;3.80;99.90;2.90;101538;;;;567199;252;24100;-79
2022/11/27 00:33:33;;;;;;;23.13;11.63;;;3.80;99.90;2.90;101542;;;;566959;253;24111;-79
2022/11/27 00:36:04;;;;;;;25.07;12.77;;;3.80;99.90;2.90;101541;;;;567135;253;24286;-80
2022/11/27 00:38:29;;;;;;;28.70;13.83;;;3.80;99.90;2.90;101540;;;;567307;252;24138;-79
2022/11/27 00:41:18;;;;;;;31.50;14.57;;;3.80;99.90;2.90;101543;;;;567426;252;24110;-82
2022/11/27 00:43:46;;;;;;;28.43;13.53;;;3.80;99.90;2.90;101544;;;;567200;251;24096;-78
2022/11/27 00:46:16;;;;;;;27.63;14.33;;;3.80;99.90;2.90;101539;;;;567387;251;24098;-80
2022/11/27 00:48:47;;;;;;;25.47;13.23;;;3.80;99.90;2.90;101535;;;;568454;252;24150;-81
2022/11/27 00:51:15;;;;;;;31.30;12.67;;;3.80;99.90;2.90;101543;;;;568177;251;24073;-79
2022/11/27 00:53:42;;;;;;;23.87;11.10;;;3.80;99.90;2.90;101543;;;;567782;252;24128;-80
2022/11/27 00:56:20;;;;;;;20.47;12.03;;;3.70;99.90;2.90;101541;;;;568088;251;24162;-79
2022/11/27 00:58:44;;;;;;;25.57;12.83;;;3.70;99.90;2.90;101537;;;;567808;252;24130;-80
2022/11/27 01:01:21;;;;;;;21.57;12.37;;;3.70;99.90;2.80;101529;;;;568563;251;24101;-81
2022/11/27 01:03:49;;;;;;;18.77;10.80;;;3.70;99.90;2.80;101537;;;;567477;251;24093;-79
2022/11/27 01:06:17;;;;;;;22.70;12.70;;;3.70;99.90;2.80;101530;;;;567572;252;24089;-82
2022/11/27 01:08:41;;;;;;;24.27;11.77;;;3.70;99.90;2.80;101532;;;;567159;253;24158;-82
2022/11/27 01:11:15;;;;;;;21.73;12.23;;;3.70;99.90;2.80;101520;;;;567949;252;24159;-79
2022/11/27 01:13:43;;;;;;;27.03;15.60;;;3.60;99.90;2.80;101530;;;;567326;249;24117;-80
2022/11/27 01:16:11;;;;;;;27.47;18.07;;;3.60;99.90;2.80;101524;;;;567881;251;24165;-85
2022/11/27 01:18:39;;;;;;;29.53;18.17;;;3.60;99.90;2.70;101528;;;;567879;251;24112;-82
2022/11/27 01:21:07;;;;;;;30.80;18.67;;;3.60;99.90;2.70;101518;;;;567625;251;25146;-79
2022/11/27 01:23:35;;;;;;;28.07;18.90;;;3.60;99.90;2.80;101526;;;;567779;251;24152;-80
2022/11/27 01:26:03;;;;;;;28.07;18.03;;;3.60;99.90;2.70;101522;;;;567279;251;24135;-79
2022/11/27 01:28:31;;;;;;;26.87;18.77;;;3.60;99.90;2.70;101527;;;;567134;252;24078;-79
2022/11/27 01:30:59;;;;;;;27.97;18.67;;;3.60;99.90;2.70;101525;;;;567191;252;24120;-81
2022/11/27 01:33:27;;;;;;;27.27;18.47;;;3.60;99.90;2.70;101528;;;;567220;252;24105;-78
2022/11/27 01:35:59;;;;;;;29.57;20.20;;;3.60;99.90;2.70;101538;;;;567204;252;24122;-79
2022/11/27 01:38:26;;;;;;;31.03;20.10;;;3.60;99.90;2.70;101532;;;;566982;253;24141;-80
2022/11/27 01:41:00;;;;;;;31.43;20.00;;;3.50;99.90;2.70;101532;;;;566810;253;24139;-78
2022/11/27 01:43:50;;;;;;;34.80;22.37;;;3.50;99.90;2.70;101534;;;;567200;252;24104;-81
2022/11/27 01:46:37;;;;;;;33.65;19.08;;;3.50;99.90;2.70;101538;;;;561719;253;35313;-81
2022/11/27 01:49:11;;;;;;;23.83;12.80;;;3.50;99.90;2.70;101546;;;;567383;252;24108;-81
2022/11/27 01:51:51;;;;;;;24.07;12.07;;;3.60;99.90;2.80;101534;;;;566923;253;24160;-81
2022/11/27 01:54:18;;;;;;;32.90;14.27;;;3.60;99.90;2.80;101533;;;;567250;253;24115;-80
2022/11/27 01:56:46;;;;;;;25.23;12.70;;;3.60;99.90;2.80;101535;;;;567240;252;24114;-83
2022/11/27 01:59:18;;;;;;;23.03;12.73;;;3.60;99.90;2.80;101540;;;;568351;251;24111;-84
2022/11/27 02:01:43;;;;;;;26.93;12.83;;;3.70;99.90;2.90;101544;;;;568446;252;24102;-81
2022/11/27 02:04:14;;;;;;;25.73;11.67;;;3.70;99.90;2.90;101549;;;;568200;251;24132;-84
2022/11/27 02:06:41;;;;;;;25.03;13.00;;;3.70;99.90;2.90;101542;;;;567677;252;24132;-81
2022/11/27 02:09:07;;;;;;;24.73;12.43;;;3.80;99.90;2.90;101540;;;;567808;252;24145;-80
2022/11/27 02:12:30;;;;;;;17.60;10.10;;;3.80;99.90;3.00;101538;;;;568002;251;24156;-80
2022/11/27 02:15:00;;;;;;;22.20;14.47;;;3.80;99.90;3.00;101535;;;;565661;252;24097;-82
2022/11/27 02:17:39;;;;;;;22.13;13.70;;;3.80;99.90;3.00;101538;;;;568006;251;24145;-79
2022/11/27 02:20:12;;;;;;;21.60;14.73;;;3.80;99.90;2.90;101527;;;;567651;252;24140;-79
2022/11/27 02:23:01;;;;;;;18.80;13.20;;;3.80;99.90;2.90;101533;;;;567528;252;24129;-79
2022/11/27 02:26:21;;;;;;;20.83;12.87;;;3.80;99.90;2.80;101530;;;;567481;252;24148;-81
2022/11/27 02:29:11;;;;;;;18.50;12.13;;;3.70;99.90;2.80;101525;;;;567600;252;24147;-80
2022/11/27 02:31:57;;;;;;;16.17;12.40;;;3.70;99.90;2.70;101527;;;;567154;251;24127;-84
2022/11/27 02:34:45;;;;;;;16.07;11.93;;;3.60;99.90;2.70;101526;;;;567400;251;24138;-82
2022/11/27 02:37:19;;;;;;;16.33;11.10;;;3.50;99.90;2.60;101537;;;;567496;251;24133;-82
2022/11/27 02:39:58;;;;;;;13.80;9.73;;;3.50;99.90;2.60;101527;;;;567426;253;24158;-82
2022/11/27 02:42:29;;;;;;;12.90;10.23;;;3.50;99.90;2.60;101528;;;;567967;251;24120;-79
2022/11/27 02:44:56;;;;;;;15.37;9.83;;;3.50;99.90;2.60;101530;;;;567099;252;24101;-78
2022/11/27 02:47:24;;;;;;;15.60;10.90;;;3.50;99.90;2.60;101531;;;;566788;252;24082;-78
2022/11/27 02:49:55;;;;;;;14.23;9.43;;;3.60;99.90;2.70;101534;;;;567226;251;24191;-79
2022/11/27 02:52:25;;;;;;;14.40;10.13;;;3.50;99.90;2.70;101553;;;;567376;252;24104;-78
2022/11/27 02:54:49;;;;;;;14.07;9.47;;;3.60;99.90;2.70;101541;;;;566765;252;24151;-80
2022/11/27 02:57:17;;;;;;;12.83;9.23;;;3.60;99.90;2.80;101541;;;;567425;252;25128;-79
2022/11/27 02:59:44;;;;;;;12.93;9.93;;;3.60;99.90;2.80;101534;;;;567197;251;24102;-79
2022/11/27 03:02:12;;;;;;;15.30;9.77;;;3.70;99.90;2.90;101531;;;;567498;252;24141;-77
2022/11/27 03:04:41;;;;;;;13.07;10.07;;;3.80;99.90;2.90;101535;;;;566643;252;24153;-77
2022/11/27 03:07:09;;;;;;;13.77;9.97;;;3.70;99.90;3.00;101536;;;;566710;252;24088;-78
2022/11/27 03:09:40;;;;;;;16.63;10.43;;;3.80;99.90;3.00;101536;;;;567413;251;24169;-79
2022/11/27 03:12:10;;;;;;;19.67;11.60;;;3.90;99.90;3.00;101532;;;;568116;252;24168;-79
2022/11/27 03:14:36;;;;;;;13.90;10.87;;;3.90;99.90;3.00;101527;;;;567772;249;24118;-78
2022/11/27 03:17:37;;;;;;;12.80;9.77;;;3.90;99.90;3.10;101534;;;;568241;251;24112;-78
2022/11/27 03:20:16;;;;;;;14.00;9.87;;;3.90;99.90;3.10;101533;;;;568065;252;24167;-79
2022/11/27 03:22:48;;;;;;;17.23;11.60;;;3.90;99.90;3.10;101538;;;;568271;252;24105;-78
2022/11/27 03:25:15;;;;;;;17.60;11.30;;;3.90;99.90;3.10;101540;;;;567709;252;24124;-81
2022/11/27 03:27:40;;;;;;;15.67;10.63;;;4.00;99.90;3.10;101536;;;;567790;252;24132;-80
2022/11/27 03:30:08;;;;;;;16.27;11.60;;;3.90;99.90;3.10;101533;;;;567055;252;24093;-80
2022/11/27 03:32:39;;;;;;;17.90;10.03;;;4.00;99.90;3.10;101537;;;;567610;252;24136;-78
2022/11/27 03:35:04;;;;;;;14.27;10.87;;;4.00;99.90;3.10;101542;;;;567621;251;24144;-79
2022/11/27 03:37:35;;;;;;;17.23;11.17;;;4.00;99.90;3.10;101547;;;;567472;252;24097;-80
2022/11/27 03:40:04;;;;;;;16.23;10.73;;;4.00;99.90;3.10;101542;;;;567899;252;24120;-79
2022/11/27 03:42:40;;;;;;;15.63;10.67;;;3.90;99.90;3.10;101545;;;;568178;252;24105;-79
2022/11/27 03:45:19;;;;;;;16.60;10.77;;;3.90;99.90;3.10;101540;;;;562813;253;24120;-77
2022/11/27 03:48:10;;;;;;;17.47;11.23;;;4.00;99.90;3.10;101542;;;;560364;252;24116;-78
2022/11/27 03:51:11;;;;;;;15.90;11.30;;;3.90;99.90;3.10;101534;;;;548488;257;24180;-78
2022/11/27 03:53:52;;;;;;;15.83;12.23;;;3.90;99.90;3.10;101540;;;;569980;249;24140;-79
2022/11/27 03:56:37;;;;;;;18.63;11.90;;;3.90;99.90;3.10;101535;;;;567100;252;24127;-78
2022/11/27 03:59:10;;;;;;;18.30;13.73;;;3.90;99.90;3.10;101537;;;;566847;251;24152;-78
2022/11/27 04:01:41;;;;;;;19.60;12.67;;;3.90;99.90;3.10;101537;;;;567447;252;24113;-79
2022/11/27 04:04:06;;;;;;;20.07;13.00;;;3.90;99.90;3.10;101533;;;;567017;252;24097;-79
2022/11/27 04:06:34;;;;;;;22.80;12.83;;;4.00;99.90;3.10;101541;;;;567222;252;24118;-78
2022/11/27 04:09:05;;;;;;;17.73;11.73;;;3.90;99.90;3.10;101538;;;;567185;252;24127;-78
2022/11/27 04:11:34;;;;;;;18.57;11.77;;;3.90;99.90;3.10;101534;;;;566998;253;24115;-79
2022/11/27 04:13:59;;;;;;;20.17;12.87;;;3.90;99.90;3.10;101546;;;;566930;249;24109;-78
2022/11/27 04:16:30;;;;;;;24.53;13.50;;;4.00;99.90;3.10;101541;;;;567239;252;24105;-78
2022/11/27 04:18:55;;;;;;;20.73;13.60;;;4.00;99.90;3.10;101534;;;;566897;252;24132;-79
2022/11/27 04:21:23;;;;;;;23.30;12.43;;;4.00;99.90;3.10;101545;;;;567498;251;24186;-78
2022/11/27 04:23:51;;;;;;;22.43;13.07;;;3.90;99.90;3.10;101542;;;;568385;251;24160;-78
2022/11/27 04:26:22;;;;;;;21.67;13.17;;;4.00;99.90;3.10;101538;;;;568093;251;24128;-79
2022/11/27 04:28:47;;;;;;;24.57;13.53;;;4.00;99.90;3.10;101540;;;;567515;252;24152;-79
2022/11/27 04:31:15;;;;;;;23.03;12.77;;;4.00;99.90;3.10;101535;;;;567745;251;24149;-78
2022/11/27 04:33:43;;;;;;;22.97;11.30;;;3.90;99.90;3.10;101530;;;;567588;251;24139;-78
2022/11/27 04:36:11;;;;;;;19.40;9.53;;;4.00;99.90;3.20;101532;;;;567629;251;24093;-77
2022/11/27 04:38:39;;;;;;;17.07;8.67;;;4.00;99.90;3.10;101537;;;;568071;251;24085;-78
2022/11/27 04:41:07;;;;;;;21.03;9.83;;;4.00;99.90;3.10;101539;;;;567346;251;24104;-79
2022/11/27 04:43:35;;;;;;;25.07;9.80;;;4.00;99.90;3.10;101528;;;;567753;251;24143;-78
2022/11/27 04:46:03;;;;;;;16.83;9.13;;;4.00;99.90;3.20;101527;;;;567410;251;24130;-78
2022/11/27 04:48:31;;;;;;;15.83;9.10;;;4.00;99.90;3.20;101529;;;;567811;251;24089;-79
2022/11/27 04:50:59;;;;;;;16.97;8.30;;;4.00;99.90;3.20;101525;;;;567408;251;24117;-79
2022/11/27 04:53:27;;;;;;;15.77;9.70;;;4.00;99.90;3.20;101528;;;;567749;251;24121;-80
2022/11/27 04:55:55;;;;;;;16.73;9.07;;;4.00;99.90;3.20;101529;;;;567501;251;24140;-79
2022/11/27 04:58:23;;;;;;;21.80;11.20;;;4.00;99.90;3.20;101529;;;;567587;251;24142;-78
2022/11/27 05:00:51;;;;;;;27.00;14.98;;;4.00;99.90;3.20;101545;;;;562064;251;35375;-78
2022/11/27 05:03:19;;;;;;;25.60;11.47;;;4.00;99.90;3.10;101544;;;;567440;251;24133;-80
2022/11/27 05:05:47;;;;;;;22.77;9.97;;;4.00;99.90;3.20;101541;;;;567047;251;24100;-78
2022/11/27 05:08:15;;;;;;;17.47;9.63;;;4.00;99.90;3.20;101539;;;;566933;252;24146;-79
2022/11/27 05:10:43;;;;;;;20.50;9.53;;;4.00;99.90;3.10;101537;;;;567490;251;24146;-78
2022/11/27 05:13:11;;;;;;;25.67;10.47;;;4.00;99.90;3.20;101532;;;;567244;249;24118;-79
2022/11/27 05:15:39;;;;;;;20.87;10.73;;;4.00;99.90;3.20;101534;;;;567060;252;24105;-79
2022/11/27 05:18:07;;;;;;;23.17;10.20;;;4.00;99.90;3.20;101528;;;;567062;252;24120;-79
2022/11/27 05:20:34;;;;;;;17.10;9.93;;;4.00;99.90;3.20;101543;;;;567038;252;24216;-79
2022/11/27 05:23:02;;;;;;;21.37;10.13;;;4.00;99.90;3.20;101529;;;;567463;251;24151;-78
2022/11/27 05:25:30;;;;;;;30.52;14.70;;;4.00;99.90;3.20;101529;;;;562260;251;35311;-78
2022/11/27 05:27:58;;;;;;;17.80;10.03;;;4.10;99.90;3.20;101530;;;;567017;252;24108;-79
2022/11/27 05:30:26;;;;;;;21.00;9.80;;;4.00;99.90;3.10;101526;;;;567008;252;24112;-79
2022/11/27 05:32:54;;;;;;;22.73;11.10;;;4.00;99.90;3.10;101524;;;;567822;251;24153;-80
2022/11/27 05:35:22;;;;;;;16.43;9.33;;;3.90;99.90;3.00;101518;;;;568386;251;24110;-78
2022/11/27 05:37:50;;;;;;;22.60;10.80;;;3.80;99.90;2.90;101516;;;;568399;251;24104;-79
2022/11/27 05:40:18;;;;;;;26.00;10.50;;;3.80;99.90;2.80;101513;;;;567875;251;24166;-79
2022/11/27 05:42:46;;;;;;;18.70;10.77;;;3.70;99.90;2.70;101514;;;;567885;251;24130;-79
2022/11/27 05:45:14;;;;;;;22.37;14.37;;;3.60;99.90;2.60;101511;;;;567590;251;24146;-78
2022/11/27 05:47:43;;;;;;;31.20;17.50;;;3.30;99.90;2.40;101510;;;;567572;251;24116;-79
2022/11/27 05:50:11;;;;;;;27.47;16.43;;;3.30;99.90;2.30;101504;;;;567504;251;24112;-79
2022/11/27 05:52:38;;;;;;;28.13;16.83;;;3.20;99.90;2.20;101505;;;;567332;251;24113;-80
2022/11/27 05:55:09;;;;;;;38.40;21.30;;;3.10;99.90;2.10;101501;;;;562421;251;35316;-83
2022/11/27 05:57:34;;;;;;;26.20;12.60;;;3.00;99.90;2.00;101504;;;;567217;252;24106;-80
2022/11/27 06:00:02;;;;;;;33.17;17.63;;;2.90;99.90;2.00;101498;;;;567325;251;24156;-79
2022/11/27 06:02:30;;;;;;;32.40;18.77;;;2.90;99.90;2.00;101502;;;;567281;251;24167;-80
2022/11/27 06:04:58;;;;;;;33.63;18.23;;;2.90;99.90;2.00;101510;;;;567751;251;24159;-80
2022/11/27 06:07:26;;;;;;;30.27;17.70;;;2.90;99.90;2.00;101506;;;;567578;251;24129;-83
2022/11/27 06:09:54;;;;;;;34.83;18.53;;;2.90;99.90;2.00;101515;;;;567320;251;24180;-79
2022/11/27 06:12:22;;;;;;;30.73;18.07;;;2.90;99.90;2.00;101506;;;;567420;251;24096;-82
2022/11/27 06:14:49;;;;;;;34.20;18.17;;;2.90;99.90;2.10;101515;;;;567189;247;24151;-81
2022/11/27 06:17:17;;;;;;;35.97;19.37;;;2.90;99.90;2.10;101512;;;;567182;252;24101;-83
2022/11/27 06:19:45;;;;;;;41.03;21.00;;;3.00;99.90;2.20;101514;;;;567153;252;24132;-83
2022/11/27 06:22:13;;;;;;;34.87;18.90;;;3.00;99.90;2.20;101523;;;;567297;252;24093;-81
2022/11/27 06:24:42;;;;;;;38.87;20.13;;;3.10;99.90;2.30;101524;;;;567337;252;24139;-82
2022/11/27 06:27:12;;;;;;;37.47;19.23;;;3.10;99.90;2.30;101531;;;;567212;252;24186;-79
2022/11/27 06:29:37;;;;;;;39.17;19.23;;;3.10;99.90;2.30;101527;;;;566867;253;24088;-83
2022/11/27 06:32:05;;;;;;;37.00;20.47;;;3.10;99.90;2.30;101528;;;;567218;252;24159;-81
2022/11/27 06:34:34;;;;;;;37.87;20.43;;;3.20;99.90;2.30;101529;;;;567177;252;24156;-79
2022/11/27 06:37:02;;;;;;;38.43;20.27;;;3.20;99.90;2.40;101529;;;;567145;252;24124;-79
2022/11/27 06:39:30;;;;;;;39.07;19.50;;;3.20;99.90;2.40;101526;;;;567003;252;24108;-80
2022/11/27 06:41:58;;;;;;;38.47;18.50;;;3.20;99.90;2.40;101521;;;;567302;251;24120;-79
2022/11/27 06:44:25;;;;;;;39.13;19.70;;;3.30;99.90;2.50;101523;;;;567319;251;24132;-80
2022/11/27 06:46:54;;;;;;;36.73;19.70;;;3.30;99.90;2.50;101534;;;;568360;251;24104;-80
2022/11/27 06:49:22;;;;;;;34.93;18.20;;;3.40;99.90;2.50;101528;;;;567940;251;24130;-81
2022/11/27 06:51:50;;;;;;;38.63;18.63;;;3.40;99.90;2.60;101527;;;;567823;251;24108;-83
2022/11/27 06:54:19;;;;;;;35.53;17.67;;;3.50;99.90;2.60;101525;;;;567742;251;24163;-84
2022/11/27 06:56:46;;;;;;;33.43;17.97;;;3.50;99.90;2.70;101531;;;;567514;251;24148;-84
2022/11/27 06:59:14;;;;;;;42.13;18.60;;;3.50;99.90;2.70;101517;;;;567515;252;24173;-82
2022/11/27 07:01:42;;;;;;;34.13;17.73;;;3.50;99.90;2.70;101522;;;;567569;251;24154;-82
2022/11/27 07:04:11;;;;;;;36.80;16.47;;;3.60;99.90;2.70;101520;;;;567824;251;24132;-83
2022/11/27 07:06:39;;;;;;;36.90;18.13;;;3.60;99.90;2.80;101511;;;;567440;251;24155;-81
2022/11/27 07:09:07;;;;;;;30.37;16.33;;;3.60;99.90;2.80;101511;;;;567200;251;24097;-79
2022/11/27 07:11:34;;;;;;;30.93;15.93;;;3.60;99.90;2.80;101516;;;;567535;251;24131;-79
2022/11/27 07:14:03;;;;;;;36.00;17.73;;;3.60;99.90;2.80;101518;;;;567257;249;25159;-79
2022/11/27 07:16:31;;;;;;;34.93;18.20;;;3.60;99.90;2.80;101530;;;;567183;252;24105;-82
2022/11/27 07:18:59;;;;;;;33.13;15.93;;;3.60;99.90;2.80;101518;;;;567266;251;25186;-79
2022/11/27 07:21:27;;;;;;;34.03;16.30;;;3.70;99.90;2.90;101526;;;;567113;251;24157;-80
2022/11/27 07:23:55;;;;;;;40.30;17.37;;;3.80;99.90;2.90;101528;;;;567007;252;24100;-78
2022/11/27 07:26:26;;;;;;;35.63;16.00;;;3.70;99.90;3.00;101529;;;;567043;252;24107;-81
2022/11/27 07:28:54;;;;;;;32.53;14.97;;;3.80;99.90;3.00;101524;;;;566504;251;24192;-80
2022/11/27 07:31:19;;;;;;;17.60;9.83;;;3.90;99.90;3.10;101525;;;;566697;253;24141;-81
2022/11/27 07:33:47;;;;;;;28.03;9.87;;;3.90;99.90;3.10;101530;;;;567088;252;24150;-80
2022/11/27 07:36:17;;;;;;;16.77;9.07;;;4.00;99.90;3.20;101535;;;;567198;251;24129;-80
2022/11/27 07:38:46;;;;;;;20.50;9.33;;;4.10;99.90;3.20;101527;;;;567122;252;24085;-80
2022/11/27 07:41:14;;;;;;;15.43;8.90;;;4.10;99.90;3.30;101541;;;;567209;251;24089;-80
2022/11/27 07:43:43;;;;;;;21.70;9.07;;;4.10;99.90;3.30;101535;;;;567543;251;24139;-80
2022/11/27 07:46:10;;;;;;;20.40;9.10;;;4.10;99.90;3.30;101532;;;;566988;252;24186;-80
2022/11/27 07:48:38;;;;;;;19.40;9.30;;;4.20;99.90;3.40;101530;;;;567029;252;24116;-78
2022/11/27 07:51:06;;;;;;;17.17;8.73;;;4.20;99.90;3.40;101537;;;;567056;251;24154;-82
2022/11/27 07:53:37;;;;;;;18.07;8.73;;;4.20;99.90;3.50;101540;;;;567512;251;24161;-79
2022/11/27 07:56:08;;;;;;;16.70;8.43;;;4.30;99.90;3.60;101541;;;;567465;251;24138;-79
2022/11/27 07:58:33;;;;;;;13.90;7.97;;;4.30;99.90;3.70;101546;;;;568367;252;24104;-78
2022/11/27 08:01:01;;;;;;;14.63;7.60;;;4.50;99.90;3.70;101541;;;;568069;251;24113;-83
2022/11/27 08:03:29;;;;;;;20.10;8.90;;;4.60;99.90;3.70;101546;;;;568270;251;24124;-81
2022/11/27 08:05:57;;;;;;;16.23;7.40;;;4.60;99.90;3.70;101556;;;;567881;251;24131;-80
2022/11/27 08:08:24;;;;;;;15.43;7.53;;;4.50;99.90;3.70;101545;;;;568019;251;24122;-80
2022/11/27 08:10:52;;;;;;;16.80;8.47;;;4.50;99.90;3.60;101543;;;;567821;251;24112;-80
2022/11/27 08:13:20;;;;;;;18.87;8.60;;;4.50;99.90;3.60;101544;;;;567896;249;24213;-79
2022/11/27 08:15:55;;;;;;;19.83;8.57;;;4.50;99.90;3.60;101555;;;;567773;251;24140;-82
2022/11/27 08:18:19;;;;;;;11.93;6.93;;;4.50;99.90;3.60;101548;;;;567138;253;24160;-80
2022/11/27 08:20:46;;;;;;;13.53;7.73;;;4.50;99.90;3.60;101552;;;;567785;251;24104;-81
2022/11/27 08:23:14;;;;;;;15.47;7.77;;;4.40;99.90;3.60;101543;;;;567453;251;24089;-81
2022/11/27 08:25:42;;;;;;;18.37;9.03;;;4.40;99.90;3.60;101547;;;;567711;251;24101;-80
2022/11/27 08:28:10;;;;;;;17.10;8.20;;;4.40;99.90;3.70;101546;;;;567500;251;24120;-80
2022/11/27 08:30:38;;;;;;;18.00;10.47;;;4.60;99.90;3.90;101551;;;;567725;251;24243;-80
2022/11/27 08:33:06;;;;;;;22.17;11.17;;;4.70;99.90;4.00;101555;;;;567128;251;24126;-79
2022/11/27 08:35:34;;;;;;;25.77;10.47;;;4.80;99.90;4.10;101556;;;;566855;253;24097;-80
2022/11/27 08:38:02;;;;;;;13.60;6.87;;;5.00;99.90;4.20;101560;;;;567025;252;24153;-81
2022/11/27 08:40:30;;;;;;;21.27;12.27;;;5.00;99.90;4.20;101563;;;;562645;251;35305;-80
2022/11/27 08:42:58;;;;;;;18.00;11.80;;;5.10;99.90;4.20;101566;;;;562272;251;35382;-80
2022/11/27 08:45:26;;;;;;;17.03;12.03;;;5.10;99.90;4.20;101571;;;;562098;252;35316;-79
2022/11/27 08:47:54;;;;;;;14.77;8.60;;;5.10;99.90;4.30;101561;;;;567044;252;24144;-78
2022/11/27 08:50:22;;;;;;;17.43;8.50;;;5.10;99.90;4.40;101559;;;;567499;251;24124;-78
2022/11/27 08:52:50;;;;;;;16.30;8.57;;;5.30;99.90;4.50;101565;;;;567235;251;24112;-79
2022/11/27 08:55:18;;;;;;;20.37;8.70;;;5.30;99.90;4.60;101563;;;;567473;251;24136;-79
2022/11/27 08:57:46;;;;;;;22.30;8.90;;;5.50;99.90;4.60;101563;;;;567189;251;24112;-80
2022/11/27 09:00:17;;;;;;;17.93;8.50;;;5.50;99.90;4.70;101562;;;;567517;251;24093;-79
2022/11/27 09:02:42;;;;;;;18.57;8.73;;;5.60;99.90;4.70;101559;;;;566904;252;24146;-77
2022/11/27 09:05:10;;;;;;;15.67;8.40;;;5.60;99.90;4.80;101555;;;;567494;252;24147;-78
2022/11/27 09:07:39;;;;;;;13.30;7.83;;;5.60;99.90;4.90;101564;;;;567412;251;24131;-78
2022/11/27 09:10:06;;;;;;;14.97;7.53;;;5.70;99.90;4.90;101568;;;;568673;251;24144;-79
2022/11/27 09:12:34;;;;;;;16.77;10.15;;;5.80;99.90;4.90;101562;;;;563017;248;35435;-79
2022/11/27 09:15:04;;;;;;;18.43;11.57;;;5.80;99.90;4.90;101573;;;;567730;251;24130;-79
2022/11/27 09:17:29;;;;;;;13.70;6.73;;;5.80;99.90;5.00;101565;;;;567359;251;24168;-79
2022/11/27 09:19:57;;;;;;;11.40;7.63;;;5.80;99.90;5.00;101574;;;;568006;251;24104;-79
2022/11/27 09:22:25;;;;;;;14.33;7.63;;;5.90;99.90;5.00;101571;;;;567748;251;24114;-79
2022/11/27 09:24:53;;;;;;;15.40;7.97;;;5.90;99.90;5.00;101565;;;;567974;251;24120;-82
2022/11/27 09:27:21;;;;;;;12.17;7.17;;;5.90;99.90;5.10;101564;;;;567552;251;24139;-82
2022/11/27 09:29:50;;;;;;;10.73;6.93;;;6.00;99.90;5.20;101564;;;;567763;251;24170;-82
2022/11/27 09:32:17;;;;;;;10.77;7.20;;;6.00;99.90;5.20;101571;;;;567444;251;24109;-81
2022/11/27 09:34:45;;;;;;;13.03;7.93;;;6.10;99.90;5.20;101578;;;;567860;251;24126;-83
2022/11/27 09:37:13;;;;;;;13.23;8.27;;;6.00;99.90;5.20;101573;;;;567406;251;24106;-82
2022/11/27 09:39:41;;;;;;;13.33;7.67;;;6.10;99.90;5.30;101574;;;;567805;251;24155;-83
2022/11/27 09:42:09;;;;;;;21.57;10.23;;;6.10;99.90;5.30;101569;;;;567383;251;24136;-84
2022/11/27 09:44:41;;;;;;;12.73;7.60;;;6.20;99.90;5.40;101574;;;;566833;252;24179;-83
2022/11/27 09:47:42;;;;;;;14.10;8.70;;;6.20;99.90;5.40;101568;;;;567444;252;24094;-80
2022/11/27 09:50:16;;;;;;;16.77;8.30;;;6.30;99.90;5.50;101566;;;;567413;252;24121;-81
2022/11/27 09:53:05;;;;;;;16.30;9.03;;;6.30;99.90;5.50;101551;;;;566536;253;24152;-83
2022/11/27 09:55:40;;;;;;;13.70;9.37;;;6.30;99.90;5.50;101559;;;;559430;252;24125;-81
2022/11/27 09:58:13;;;;;;;16.07;8.80;;;6.40;99.90;5.60;101561;;;;567115;252;24108;-83
2022/11/27 10:00:41;;;;;;;21.80;9.73;;;6.40;99.90;5.70;101556;;;;567468;251;24101;-83
2022/11/27 10:03:14;;;;;;;18.27;8.97;;;6.40;99.90;5.80;101557;;;;567180;251;24125;-81
2022/11/27 10:05:57;;;;;;;15.27;9.37;;;6.60;99.90;5.90;101553;;;;567518;251;24192;-82
2022/11/27 10:09:02;;;;;;;15.17;7.87;;;6.70;99.90;6.00;101551;;;;566610;253;24109;-83
2022/11/27 10:11:51;;;;;;;19.73;10.60;;;6.80;99.90;6.10;101557;;;;567014;252;24142;-79
2022/11/27 10:14:28;;;;;;;17.43;9.23;;;7.00;99.90;6.20;101551;;;;567129;249;24116;-81
2022/11/27 10:17:08;;;;;;;14.53;9.40;;;7.00;99.90;6.30;101544;;;;567529;251;24184;-83
2022/11/27 10:19:38;;;;;;;13.67;8.83;;;7.10;99.90;6.40;101541;;;;567902;251;24092;-80
2022/11/27 10:22:18;;;;;;;24.10;10.70;;;7.20;99.90;6.50;101542;;;;567438;252;24168;-81
2022/11/27 10:24:46;;;;;;;17.10;9.70;;;7.30;99.90;6.50;101553;;;;567682;252;24093;-80
2022/11/27 10:27:29;;;;;;;19.37;10.90;;;7.30;99.90;6.60;101542;;;;567541;252;24107;-80
2022/11/27 10:29:56;;;;;;;17.87;9.43;;;7.30;99.90;6.70;101538;;;;567549;252;24144;-83
2022/11/27 10:32:30;;;;;;;18.20;10.00;;;7.40;99.90;6.70;101538;;;;567953;251;24097;-82
2022/11/27 10:35:01;;;;;;;19.13;9.77;;;7.50;99.90;6.70;101542;;;;567665;251;24109;-81
2022/11/27 10:37:48;;;;;;;15.07;9.03;;;7.60;99.90;6.80;101536;;;;567284;253;24122;-81
2022/11/27 10:40:20;;;;;;;18.23;10.73;;;7.60;99.90;6.70;101549;;;;567359;251;24096;-79
2022/11/27 10:42:56;;;;;;;21.70;11.63;;;7.50;99.90;6.70;101538;;;;566841;252;24219;-78
2022/11/27 10:45:33;;;;;;;25.07;12.50;;;7.50;99.90;6.80;101539;;;;566750;252;24093;-80
2022/11/27 10:48:02;;;;;;;19.10;12.10;;;7.60;99.90;6.80;101542;;;;567299;252;24143;-79
2022/11/27 10:50:30;;;;;;;22.23;12.97;;;7.60;99.90;6.80;101543;;;;567271;251;24117;-80
2022/11/27 10:53:04;;;;;;;21.53;11.23;;;7.60;99.90;6.90;101540;;;;567371;251;24144;-78
2022/11/27 10:56:13;;;;;;;17.57;10.40;;;7.70;99.90;6.90;101548;;;;567145;252;24123;-80
2022/11/27 10:58:55;;;;;;;15.47;9.93;;;7.70;99.90;7.00;101537;;;;567051;252;24105;-81
2022/11/27 11:01:25;;;;;;;23.17;10.83;;;7.80;99.90;7.00;101535;;;;566688;252;24144;-80
2022/11/27 11:03:51;;;;;;;19.30;11.00;;;7.80;99.90;7.00;101536;;;;566581;253;25170;-78
2022/11/27 11:06:22;;;;;;;25.77;12.50;;;7.80;99.90;7.00;101527;;;;567123;252;24122;-79
2022/11/27 11:09:18;;;;;;;19.40;11.13;;;7.80;99.90;7.10;101526;;;;567414;251;24170;-79
2022/11/27 11:11:46;;;;;;;24.07;12.10;;;7.90;99.90;7.10;101522;;;;566898;253;24161;-80
2022/11/27 11:14:19;;;;;;;24.70;12.40;;;7.90;99.90;7.20;101524;;;;567013;249;24179;-79
2022/11/27 11:16:50;;;;;;;31.67;15.17;;;7.90;99.90;7.20;101528;;;;567163;251;24127;-80
2022/11/27 11:19:29;;;;;;;31.57;16.03;;;8.00;99.90;7.30;101531;;;;566859;252;24198;-82
2022/11/27 11:22:00;;;;;;;18.33;12.10;;;8.10;99.90;7.30;101526;;;;567232;252;24109;-81
2022/11/27 11:24:28;;;;;;;20.07;11.90;;;8.20;99.90;7.40;101523;;;;567163;252;24097;-81
2022/11/27 11:26:59;;;;;;;20.00;12.30;;;8.10;99.90;7.50;101511;;;;566723;253;24159;-79
2022/11/27 11:29:36;;;;;;;21.20;12.67;;;8.30;99.90;7.50;101519;;;;567065;253;24121;-80